Time;durP1;ratioP1;P1;durP2;ratioP2;P2;SDS_P1;SDS_P2;PMS_P1;PMS_P2;Temp;Humidity;BMP_temperature;BMP_pressure;BME280_temperature;BME280_humidity;BME280_pressure;Samples;Min_cycle;Max_cycle;Signal;HPM_P1;HPM_P2
2022/06/26 00:01:32;;;;;;;2.03;1.17;;;16.60;99.90;;;;;;5075627;28;20188;-78
2022/06/26 00:03:57;;;;;;;1.73;1.00;;;16.70;99.90;;;;;;5078649;28;20219;-74
2022/06/26 00:06:24;;;;;;;1.83;0.97;;;16.70;99.90;;;;;;5083146;28;20636;-78
2022/06/26 00:08:50;;;;;;;2.13;1.03;;;16.70;99.90;;;;;;5074880;28;20212;-78
2022/06/26 00:11:16;;;;;;;1.63;0.83;;;16.70;99.90;;;;;;5076575;28;20801;-78
2022/06/26 00:13:42;;;;;;;4.90;1.20;;;16.80;99.90;;;;;;5063804;28;20645;-78
2022/06/26 00:16:08;;;;;;;2.33;1.10;;;16.80;99.90;;;;;;5075717;28;20220;-77
2022/06/26 00:18:34;;;;;;;2.50;1.20;;;16.80;99.90;;;;;;5100417;28;20432;-78
2022/06/26 00:20:59;;;;;;;18.63;1.73;;;16.90;99.90;;;;;;5109182;28;20173;-78
2022/06/26 00:23:25;;;;;;;2.53;1.13;;;17.20;99.90;;;;;;5096617;28;20215;-77
2022/06/26 00:25:51;;;;;;;1.90;0.90;;;17.40;99.90;;;;;;5096290;28;20264;-75
2022/06/26 00:28:16;;;;;;;2.30;1.13;;;17.80;99.90;;;;;;5093445;28;20173;-77
2022/06/26 00:30:42;;;;;;;1.70;0.90;;;17.90;99.90;;;;;;5070839;28;20307;-78
2022/06/26 00:33:08;;;;;;;2.37;1.17;;;18.00;99.90;;;;;;5063302;28;20223;-77
2022/06/26 00:35:33;;;;;;;2.60;1.17;;;18.10;99.90;;;;;;5074345;28;21105;-77
2022/06/26 00:37:59;;;;;;;2.57;1.10;;;18.20;99.90;;;;;;5071123;28;20191;-78
2022/06/26 00:40:25;;;;;;;2.10;1.20;;;18.30;99.90;;;;;;5070214;28;20185;-77
2022/06/26 00:42:50;;;;;;;2.43;0.80;;;18.40;99.90;;;;;;5069185;28;20297;-76
2022/06/26 00:45:16;;;;;;;1.90;1.00;;;18.40;99.90;;;;;;5069234;28;20585;-77
2022/06/26 00:47:42;;;;;;;2.73;1.23;;;18.40;99.90;;;;;;5070462;28;20185;-77
2022/06/26 00:50:08;;;;;;;8.13;1.20;;;18.40;99.90;;;;;;5049740;28;20886;-77
2022/06/26 00:52:35;;;;;;;3.27;1.20;;;18.40;99.90;;;;;;5067214;28;20177;-77
2022/06/26 00:55:01;;;;;;;2.17;1.10;;;18.40;99.90;;;;;;5067951;28;20490;-77
2022/06/26 00:57:26;;;;;;;2.73;1.20;;;18.40;99.90;;;;;;5067961;28;20477;-77
2022/06/26 00:59:52;;;;;;;3.47;1.20;;;18.30;99.90;;;;;;5068029;28;20423;-77
2022/06/26 01:02:18;;;;;;;2.00;0.93;;;18.30;99.90;;;;;;5074616;28;20270;-78
2022/06/26 01:04:43;;;;;;;1.87;0.90;;;18.30;99.90;;;;;;5082606;28;20215;-76
2022/06/26 01:07:11;;;;;;;2.20;1.10;;;18.30;99.90;;;;;;5067087;28;20184;-77
2022/06/26 01:09:37;;;;;;;2.80;1.03;;;18.30;99.90;;;;;;5068874;28;20215;-77
2022/06/26 01:12:03;;;;;;;1.97;1.00;;;18.30;99.90;;;;;;5066877;28;20427;-77
2022/06/26 01:14:30;;;;;;;3.77;1.53;;;18.20;99.90;;;;;;5066443;28;20293;-77
2022/06/26 01:16:56;;;;;;;2.90;1.30;;;18.20;99.90;;;;;;5068639;28;20498;-74
2022/06/26 01:19:21;;;;;;;3.00;1.23;;;18.10;99.90;;;;;;5066861;28;21321;-77
2022/06/26 01:21:47;;;;;;;3.90;1.70;;;18.00;99.90;;;;;;5070465;28;20191;-77
2022/06/26 01:24:14;;;;;;;3.40;1.57;;;17.90;99.90;;;;;;5077633;28;20685;-77
2022/06/26 01:26:40;;;;;;;4.97;1.30;;;17.90;99.90;;;;;;5067549;28;20672;-75
2022/06/26 01:29:06;;;;;;;1.90;1.00;;;17.80;99.90;;;;;;5067174;28;20998;-77
2022/06/26 01:31:36;;;;;;;2.00;1.23;;;17.70;99.90;;;;;;5073274;28;20426;-76
2022/06/26 01:34:07;;;;;;;1.90;1.00;;;17.70;99.90;;;;;;5080112;28;20439;-74
2022/06/26 01:36:33;;;;;;;1.63;0.83;;;17.70;99.90;;;;;;5067177;28;20994;-77
2022/06/26 01:38:58;;;;;;;5.70;1.30;;;17.70;99.90;;;;;;5073329;28;20442;-77
2022/06/26 01:41:24;;;;;;;3.20;1.70;;;17.60;99.90;;;;;;5066931;28;20185;-77
2022/06/26 01:43:50;;;;;;;3.10;1.60;;;17.60;99.90;;;;;;5066450;28;20228;-77
2022/06/26 01:46:16;;;;;;;2.03;0.90;;;17.60;99.90;;;;;;5067679;28;20188;-77
2022/06/26 01:48:42;;;;;;;1.87;0.90;;;17.50;99.90;;;;;;5066948;28;20674;-77
2022/06/26 01:51:08;;;;;;;1.80;1.20;;;17.50;99.90;;;;;;5066360;28;20193;-76
2022/06/26 01:53:35;;;;;;;2.20;1.17;;;17.50;99.90;;;;;;5066387;28;20534;-78
2022/06/26 01:56:01;;;;;;;4.17;0.97;;;17.50;99.90;;;;;;5066357;28;20434;-77
2022/06/26 01:58:27;;;;;;;3.23;1.40;;;17.50;99.90;;;;;;5066794;28;20419;-75
2022/06/26 02:00:56;;;;;;;3.60;1.40;;;17.50;99.90;;;;;;5071780;28;20427;-77
2022/06/26 02:03:23;;;;;;;2.30;1.30;;;17.50;99.90;;;;;;5075706;28;20227;-77
2022/06/26 02:05:48;;;;;;;2.47;1.33;;;17.50;99.90;;;;;;5072329;28;20462;-77
2022/06/26 02:08:14;;;;;;;2.20;1.23;;;17.50;99.90;;;;;;5083951;28;20425;-77
2022/06/26 02:13:39;;;;;;;3.67;1.20;;;17.40;99.90;;;;;;5076940;28;20208;-77
2022/06/26 02:16:09;;;;;;;2.87;1.40;;;17.30;99.90;;;;;;5079203;28;20431;-77
2022/06/26 02:18:36;;;;;;;2.40;1.30;;;17.20;99.90;;;;;;5066327;28;20442;-77
2022/06/26 02:21:05;;;;;;;2.50;1.50;;;17.10;99.90;;;;;;5066322;28;20423;-77
2022/06/26 02:23:30;;;;;;;4.53;1.77;;;17.00;99.90;;;;;;5069298;28;21202;-78
2022/06/26 02:25:56;;;;;;;7.50;1.60;;;17.00;99.90;;;;;;5076823;28;20462;-77
2022/06/26 02:28:22;;;;;;;3.20;1.47;;;16.90;99.90;;;;;;5066619;28;20204;-74
2022/06/26 02:30:49;;;;;;;8.70;1.50;;;16.90;99.90;;;;;;5074977;28;20681;-77
2022/06/26 02:33:14;;;;;;;3.00;1.70;;;16.90;99.90;;;;;;5071933;28;20222;-78
2022/06/26 02:35:40;;;;;;;3.60;1.40;;;17.00;99.90;;;;;;5067906;28;20438;-77
2022/06/26 02:38:06;;;;;;;6.00;1.33;;;16.90;99.90;;;;;;5074209;28;20235;-77
2022/06/26 02:40:33;;;;;;;3.30;1.37;;;16.90;99.90;;;;;;5065912;28;20184;-77
2022/06/26 02:42:58;;;;;;;2.67;1.37;;;16.90;99.90;;;;;;5076110;28;20216;-77
2022/06/26 02:45:24;;;;;;;2.77;1.30;;;16.90;99.90;;;;;;5068707;28;20505;-77
2022/06/26 02:47:50;;;;;;;4.00;1.77;;;16.90;99.90;;;;;;5066419;28;20235;-77
2022/06/26 02:50:16;;;;;;;2.60;1.40;;;16.90;99.90;;;;;;5068611;28;20184;-77
2022/06/26 02:52:43;;;;;;;2.63;1.73;;;16.90;99.90;;;;;;5069059;28;20932;-78
2022/06/26 02:55:09;;;;;;;2.53;1.37;;;16.90;99.90;;;;;;5069974;28;20446;-78
2022/06/26 02:57:35;;;;;;;2.10;1.40;;;16.90;99.90;;;;;;5069579;28;20421;-78
2022/06/26 03:00:02;;;;;;;3.40;1.80;;;16.90;99.90;;;;;;5077158;28;20435;-77
2022/06/26 03:02:28;;;;;;;4.00;1.40;;;16.80;99.90;;;;;;5076644;28;20196;-76
2022/06/26 03:04:54;;;;;;;5.20;1.43;;;16.80;99.90;;;;;;5079877;28;21054;-77
2022/06/26 03:07:20;;;;;;;10.33;1.60;;;16.80;99.90;;;;;;5069515;28;20177;-78
2022/06/26 03:09:46;;;;;;;1.83;1.20;;;16.70;99.90;;;;;;5069761;28;20938;-77
2022/06/26 03:12:12;;;;;;;2.77;1.50;;;16.70;99.90;;;;;;5069884;28;20420;-76
2022/06/26 03:14:38;;;;;;;4.00;1.30;;;16.70;99.90;;;;;;5067995;28;20819;-77
2022/06/26 03:17:04;;;;;;;3.60;2.07;;;16.70;99.90;;;;;;5069529;28;20503;-77
2022/06/26 03:19:30;;;;;;;2.37;1.20;;;16.60;99.90;;;;;;5069075;28;20217;-77
2022/06/26 03:21:56;;;;;;;3.53;1.60;;;16.50;99.90;;;;;;5068879;28;20493;-77
2022/06/26 03:24:22;;;;;;;5.87;1.60;;;16.50;99.90;;;;;;5067829;28;20213;-77
2022/06/26 03:26:48;;;;;;;3.03;1.77;;;16.50;99.90;;;;;;5069358;28;20274;-77
2022/06/26 03:29:14;;;;;;;6.27;1.93;;;16.40;99.90;;;;;;5079419;28;20469;-75
2022/06/26 03:31:40;;;;;;;6.50;1.83;;;16.40;99.90;;;;;;5069093;28;20185;-77
2022/06/26 03:34:06;;;;;;;3.10;1.53;;;16.40;99.90;;;;;;5074085;28;20455;-77
2022/06/26 03:36:33;;;;;;;2.60;1.57;;;16.40;99.90;;;;;;5082250;28;20438;-77
2022/06/26 03:38:59;;;;;;;4.67;2.33;;;16.30;99.90;;;;;;5069622;28;20177;-77
2022/06/26 03:41:25;;;;;;;4.10;1.70;;;16.30;99.90;;;;;;5070521;28;20419;-77
2022/06/26 03:43:51;;;;;;;2.20;1.27;;;16.30;99.90;;;;;;5070971;28;20466;-77
2022/06/26 03:46:16;;;;;;;2.50;1.83;;;16.30;99.90;;;;;;5068569;28;20505;-77
2022/06/26 03:48:42;;;;;;;2.43;1.50;;;16.30;99.90;;;;;;5068702;28;20215;-75
2022/06/26 03:51:08;;;;;;;2.70;1.63;;;16.30;99.90;;;;;;5068796;28;20635;-77
2022/06/26 03:53:35;;;;;;;3.00;1.63;;;16.30;99.90;;;;;;5068426;28;20865;-78
2022/06/26 03:56:01;;;;;;;2.47;1.53;;;16.40;99.90;;;;;;5068887;28;20423;-77
2022/06/26 03:58:27;;;;;;;2.67;1.30;;;16.30;99.90;;;;;;5069006;28;21170;-76
2022/06/26 04:00:53;;;;;;;3.50;1.50;;;16.30;99.90;;;;;;5067816;28;20416;-77
2022/06/26 04:03:19;;;;;;;6.57;1.70;;;16.20;99.90;;;;;;5081709;28;20253;-77
2022/06/26 04:05:45;;;;;;;3.10;1.20;;;16.20;99.90;;;;;;5080591;28;20466;-77
2022/06/26 04:08:11;;;;;;;4.50;2.00;;;16.20;99.90;;;;;;5073729;28;20450;-78
2022/06/26 04:10:36;;;;;;;2.80;1.60;;;16.20;99.90;;;;;;5080645;28;20869;-78
2022/06/26 04:13:06;;;;;;;4.33;1.87;;;16.20;99.90;;;;;;5075709;28;20725;-78
2022/06/26 04:15:33;;;;;;;4.83;1.53;;;16.20;99.90;;;;;;5069669;28;20181;-78
2022/06/26 04:18:00;;;;;;;2.83;2.27;;;16.10;99.90;;;;;;5071853;28;20419;-78
2022/06/26 04:20:26;;;;;;;3.30;1.97;;;16.10;99.90;;;;;;5086438;28;20470;-75
2022/06/26 04:22:59;;;;;;;2.63;1.20;;;16.20;99.90;;;;;;5071869;28;20848;-78
2022/06/26 04:25:25;;;;;;;3.30;1.80;;;16.20;99.90;;;;;;5068898;28;20618;-77
2022/06/26 04:27:52;;;;;;;3.53;1.70;;;16.10;99.90;;;;;;5063150;28;20505;-75
2022/06/26 04:30:17;;;;;;;2.70;1.40;;;16.10;99.90;;;;;;5071509;28;20425;-79
2022/06/26 04:32:43;;;;;;;8.47;1.60;;;16.10;99.90;;;;;;5067799;28;20964;-78
2022/06/26 04:35:09;;;;;;;2.30;1.40;;;16.00;99.90;;;;;;5071639;28;20265;-78
2022/06/26 04:37:36;;;;;;;2.90;1.23;;;16.00;99.90;;;;;;5078785;28;20189;-77
2022/06/26 04:40:06;;;;;;;3.03;1.80;;;16.10;99.90;;;;;;5064085;28;20422;-78
2022/06/26 04:42:32;;;;;;;2.93;1.40;;;16.10;99.90;;;;;;5082014;28;20549;-78
2022/06/26 04:44:58;;;;;;;2.90;1.47;;;16.10;99.90;;;;;;5068261;28;20577;-78
2022/06/26 04:47:23;;;;;;;2.23;1.20;;;16.20;99.90;;;;;;5068107;28;20184;-77
2022/06/26 04:49:49;;;;;;;2.20;1.23;;;16.30;99.90;;;;;;5068170;28;20858;-78
2022/06/26 04:52:15;;;;;;;2.70;1.27;;;16.40;99.90;;;;;;5081100;28;20180;-77
2022/06/26 04:54:42;;;;;;;2.73;1.30;;;16.40;99.90;;;;;;5068105;28;20701;-78
2022/06/26 04:57:08;;;;;;;3.17;1.63;;;16.50;99.90;;;;;;5066167;28;20435;-79
2022/06/26 04:59:33;;;;;;;2.77;1.53;;;16.50;99.90;;;;;;5067483;28;20419;-78
2022/06/26 05:01:59;;;;;;;2.80;1.60;;;16.50;99.90;;;;;;5061991;28;20203;-76
2022/06/26 05:04:25;;;;;;;2.70;1.20;;;16.60;99.90;;;;;;5079191;28;20224;-78
2022/06/26 05:06:50;;;;;;;2.70;1.50;;;16.60;99.90;;;;;;5083833;28;20185;-78
2022/06/26 05:09:16;;;;;;;3.30;1.63;;;16.60;99.90;;;;;;5064061;28;20651;-78
2022/06/26 05:11:43;;;;;;;2.30;1.27;;;16.70;99.90;;;;;;5067255;28;20173;-78
2022/06/26 05:14:09;;;;;;;2.60;1.60;;;16.70;99.90;;;;;;5066749;28;20940;-77
2022/06/26 05:16:35;;;;;;;2.17;1.50;;;16.70;99.90;;;;;;5067622;28;20419;-79
2022/06/26 05:19:02;;;;;;;2.67;1.63;;;16.70;99.90;;;;;;5067327;28;20422;-75
2022/06/26 05:21:27;;;;;;;8.03;1.90;;;16.70;99.90;;;;;;5069120;28;20189;-78
2022/06/26 05:23:53;;;;;;;3.13;1.50;;;16.70;99.90;;;;;;5066968;28;20438;-78
2022/06/26 05:26:19;;;;;;;3.07;1.80;;;16.80;99.90;;;;;;5067335;28;20181;-79
2022/06/26 05:28:44;;;;;;;2.50;1.37;;;16.80;99.90;;;;;;5068375;28;20196;-78
2022/06/26 05:31:10;;;;;;;2.60;1.47;;;16.90;99.90;;;;;;5076627;28;20601;-79
2022/06/26 05:33:36;;;;;;;2.23;1.33;;;17.00;99.90;;;;;;5084016;28;20216;-79
2022/06/26 05:36:02;;;;;;;2.73;1.60;;;17.00;99.90;;;;;;5105173;28;20201;-76
2022/06/26 05:38:27;;;;;;;3.50;1.47;;;17.00;99.90;;;;;;5095448;28;20203;-79
2022/06/26 05:40:53;;;;;;;4.70;1.97;;;17.00;99.90;;;;;;5095727;28;20250;-78
2022/06/26 05:43:19;;;;;;;3.50;2.17;;;17.00;99.90;;;;;;5079278;28;20193;-78
2022/06/26 05:45:44;;;;;;;4.40;1.27;;;17.00;99.90;;;;;;5078670;28;20244;-78
2022/06/26 05:48:10;;;;;;;2.33;1.23;;;17.10;99.90;;;;;;5077559;28;20208;-77
2022/06/26 05:50:35;;;;;;;2.67;1.53;;;17.10;99.90;;;;;;5090018;28;20680;-78
2022/06/26 05:53:01;;;;;;;3.13;1.60;;;17.20;99.90;;;;;;5079309;28;20208;-78
2022/06/26 05:55:27;;;;;;;4.10;1.57;;;17.20;99.90;;;;;;5080586;28;20565;-79
2022/06/26 05:57:53;;;;;;;1.90;1.20;;;17.30;99.90;;;;;;5074536;28;20184;-78
2022/06/26 06:00:18;;;;;;;3.90;1.57;;;17.30;99.90;;;;;;5074982;28;20423;-78
2022/06/26 06:02:45;;;;;;;2.10;1.27;;;17.40;99.90;;;;;;5080318;28;20192;-78
2022/06/26 06:05:11;;;;;;;5.60;1.60;;;17.40;99.90;;;;;;5074061;28;20299;-79
2022/06/26 06:07:37;;;;;;;1.97;1.20;;;17.50;99.90;;;;;;5084850;28;20553;-78
2022/06/26 06:10:05;;;;;;;7.33;1.87;;;17.50;99.90;;;;;;5073374;28;20234;-78
2022/06/26 06:12:31;;;;;;;2.00;1.10;;;17.60;99.90;;;;;;5072716;28;20189;-79
2022/06/26 06:14:56;;;;;;;1.87;1.07;;;17.70;99.90;;;;;;5076730;28;20522;-79
2022/06/26 06:17:37;;;;;;;2.63;1.50;;;17.70;99.90;;;;;;5072762;28;20318;-78
2022/06/26 06:20:06;;;;;;;2.27;1.13;;;17.80;99.90;;;;;;5110639;28;20184;-79
2022/06/26 06:22:31;;;;;;;3.20;1.57;;;17.90;99.90;;;;;;5096606;28;20447;-78
2022/06/26 06:24:57;;;;;;;10.20;1.40;;;18.00;99.90;;;;;;5097567;28;20474;-79
2022/06/26 06:27:23;;;;;;;1.80;0.97;;;18.20;99.90;;;;;;5099909;28;20193;-80
2022/06/26 06:29:48;;;;;;;2.53;1.57;;;18.30;99.90;;;;;;5096038;28;20207;-78
2022/06/26 06:32:14;;;;;;;2.17;1.17;;;18.40;99.90;;;;;;5081500;28;20204;-79
2022/06/26 06:34:40;;;;;;;3.40;1.50;;;18.50;99.90;;;;;;5080357;28;20204;-78
2022/06/26 06:37:06;;;;;;;2.20;1.30;;;18.50;99.90;;;;;;5083719;28;20183;-78
2022/06/26 06:39:31;;;;;;;2.17;1.10;;;18.60;99.90;;;;;;5081235;28;20184;-77
2022/06/26 06:41:57;;;;;;;2.40;1.20;;;18.70;99.90;;;;;;5077958;28;20269;-77
2022/06/26 06:44:23;;;;;;;2.70;1.33;;;18.70;99.90;;;;;;5076489;28;20248;-77
2022/06/26 06:46:48;;;;;;;2.53;1.47;;;18.80;99.90;;;;;;5073897;28;20201;-78
2022/06/26 06:49:14;;;;;;;4.70;1.63;;;18.90;99.90;;;;;;5076250;28;20280;-78
2022/06/26 06:51:40;;;;;;;2.93;1.23;;;19.00;99.90;;;;;;5072596;28;20185;-78
2022/06/26 06:54:06;;;;;;;3.30;1.50;;;19.20;99.90;;;;;;5076820;28;20218;-77
2022/06/26 06:56:32;;;;;;;1.83;1.20;;;19.30;99.90;;;;;;5078290;28;20217;-78
2022/06/26 06:58:57;;;;;;;2.73;1.30;;;19.50;99.90;;;;;;5079601;28;20273;-78
2022/06/26 07:01:23;;;;;;;3.60;1.30;;;19.60;99.90;;;;;;5072822;28;20280;-77
2022/06/26 07:03:48;;;;;;;2.00;1.20;;;19.80;99.90;;;;;;5070343;28;20209;-77
2022/06/26 07:06:14;;;;;;;2.83;1.33;;;20.00;99.90;;;;;;5067873;28;20187;-78
2022/06/26 07:08:40;;;;;;;1.80;0.90;;;20.20;99.90;;;;;;5072993;28;20275;-79
2022/06/26 07:11:05;;;;;;;2.47;1.10;;;20.30;99.90;;;;;;5076460;28;20719;-79
2022/06/26 07:13:31;;;;;;;1.87;0.93;;;20.50;99.90;;;;;;5075316;28;20219;-79
2022/06/26 07:15:57;;;;;;;1.93;0.97;;;20.60;99.90;;;;;;5063357;28;21118;-80
2022/06/26 07:18:24;;;;;;;10.57;1.17;;;20.80;99.90;;;;;;5079466;28;20189;-79
2022/06/26 07:20:50;;;;;;;1.90;0.80;;;21.00;99.90;;;;;;5074985;28;20188;-79
2022/06/26 07:23:16;;;;;;;3.00;1.17;;;21.10;99.90;;;;;;5083648;28;20517;-79
2022/06/26 07:25:42;;;;;;;2.37;0.90;;;21.30;99.90;;;;;;5074853;28;20533;-77
2022/06/26 07:28:08;;;;;;;2.60;1.07;;;21.60;99.90;;;;;;5071018;28;20483;-77
2022/06/26 07:30:34;;;;;;;1.60;0.80;;;22.00;99.90;;;;;;5069642;28;20185;-78
2022/06/26 07:33:04;;;;;;;3.00;1.00;;;22.30;99.60;;;;;;5068710;28;20670;-78
2022/06/26 07:35:30;;;;;;;1.50;0.70;;;22.60;99.30;;;;;;5071898;28;20447;-78
2022/06/26 07:37:56;;;;;;;2.33;1.10;;;23.00;97.90;;;;;;5070727;28;20423;-79
2022/06/26 07:40:21;;;;;;;1.93;0.87;;;23.20;98.00;;;;;;5077171;28;20297;-80
2022/06/26 07:42:47;;;;;;;1.90;0.93;;;23.90;96.60;;;;;;5057564;28;20184;-77
2022/06/26 07:45:13;;;;;;;2.23;0.90;;;24.60;95.60;;;;;;5075186;28;20212;-75
2022/06/26 07:47:38;;;;;;;2.73;1.30;;;25.60;94.40;;;;;;5079527;28;20183;-79
2022/06/26 07:50:05;;;;;;;2.30;1.05;;;26.90;91.60;;;;;;5075456;28;20185;-79
2022/06/26 07:52:30;;;;;;;1.90;0.85;;;27.80;87.70;;;;;;5079967;28;20185;-81
2022/06/26 07:54:56;;;;;;;1.90;1.10;;;27.60;89.50;;;;;;5076657;28;20218;-78
2022/06/26 07:57:21;;;;;;;3.85;1.00;;;28.40;86.40;;;;;;5104835;28;20190;-80
2022/06/26 07:59:47;;;;;;;1.90;0.85;;;28.50;82.90;;;;;;5088008;28;20260;-81
2022/06/26 08:02:13;;;;;;;1.98;0.85;;;29.00;83.00;;;;;;5073022;28;20187;-80
2022/06/26 08:04:39;;;;;;;2.20;1.08;;;29.50;80.40;;;;;;5079776;28;20550;-80
2022/06/26 08:07:04;;;;;;;1.83;0.90;;;30.60;76.10;;;;;;5083019;28;20232;-81
2022/06/26 08:09:30;;;;;;;2.40;0.90;;;30.80;75.80;;;;;;5060267;28;20186;-81
2022/06/26 08:11:56;;;;;;;2.35;0.82;;;31.30;74.90;;;;;;5078619;28;20172;-80
2022/06/26 08:14:21;;;;;;;1.90;1.00;;;29.90;76.20;;;;;;5087427;28;20208;-80
2022/06/26 08:16:47;;;;;;;2.40;0.70;;;29.40;79.30;;;;;;5087668;28;20221;-81
2022/06/26 08:19:13;;;;;;;3.00;0.88;;;29.20;77.10;;;;;;5072599;28;20185;-80
2022/06/26 08:24:23;;;;;;;1.50;0.60;;;28.50;78.80;;;;;;5083568;28;20210;-79
2022/06/26 08:26:48;;;;;;;1.70;0.60;;;29.20;76.50;;;;;;5081801;28;20175;-77
2022/06/26 08:29:14;;;;;;;2.95;1.42;;;29.10;74.70;;;;;;5055773;28;20291;-81
2022/06/26 08:31:40;;;;;;;3.75;1.10;;;29.40;75.40;;;;;;5073439;28;20211;-80
2022/06/26 08:34:05;;;;;;;1.80;0.73;;;29.50;74.30;;;;;;5072179;28;20685;-81
2022/06/26 08:36:31;;;;;;;2.03;0.93;;;29.40;75.70;;;;;;5076755;28;20932;-80
2022/06/26 08:38:57;;;;;;;2.08;0.73;;;29.50;72.80;;;;;;5085249;28;20186;-81
2022/06/26 08:41:28;;;;;;;2.13;1.08;;;29.90;71.80;;;;;;5089277;28;20181;-81
2022/06/26 08:43:58;;;;;;;16.33;1.00;;;30.10;72.60;;;;;;5069393;28;20220;-81
2022/06/26 08:46:27;;;;;;;2.58;1.00;;;29.70;74.30;;;;;;5072009;28;20195;-81
2022/06/26 08:48:56;;;;;;;2.10;0.90;;;30.10;73.70;;;;;;5079761;28;20667;-80
2022/06/26 08:51:22;;;;;;;1.80;0.80;;;30.30;71.40;;;;;;5084804;28;20559;-81
2022/06/26 08:53:50;;;;;;;9.07;1.35;;;29.10;74.10;;;;;;5068531;28;20547;-81
2022/06/26 08:56:16;;;;;;;1.90;0.80;;;29.20;75.80;;;;;;5069365;28;20179;-80
2022/06/26 08:58:41;;;;;;;2.08;1.10;;;29.90;72.90;;;;;;5105830;28;20186;-80
2022/06/26 09:01:07;;;;;;;2.13;0.85;;;30.00;71.60;;;;;;5075843;28;20592;-81
2022/06/26 09:03:34;;;;;;;2.08;0.82;;;29.30;75.90;;;;;;5079103;28;20286;-82
2022/06/26 09:06:01;;;;;;;1.95;0.90;;;29.50;75.20;;;;;;5086615;28;20214;-81
2022/06/26 09:08:29;;;;;;;2.17;0.90;;;30.00;72.20;;;;;;5087940;28;20188;-81
2022/06/26 09:10:55;;;;;;;2.17;1.10;;;30.10;71.60;;;;;;5059090;28;20191;-82
2022/06/26 09:13:20;;;;;;;2.00;1.10;;;30.00;74.00;;;;;;5072347;28;20196;-81
2022/06/26 09:15:50;;;;;;;2.00;0.80;;;30.10;72.80;;;;;;5079922;28;20189;-82
2022/06/26 09:18:16;;;;;;;5.38;0.80;;;30.20;73.60;;;;;;5082505;28;20190;-80
2022/06/26 09:20:55;;;;;;;3.60;1.15;;;29.90;73.50;;;;;;5079120;28;20185;-80
2022/06/26 09:23:22;;;;;;;3.38;1.08;;;29.70;75.10;;;;;;5073718;28;20238;-80
2022/06/26 09:25:48;;;;;;;1.85;0.88;;;28.90;77.90;;;;;;5081774;28;20259;-81
2022/06/26 09:28:19;;;;;;;1.80;0.82;;;28.10;78.30;;;;;;5085404;28;20288;-80
2022/06/26 09:30:59;;;;;;;1.80;0.85;;;27.90;78.10;;;;;;5073395;28;20195;-80
2022/06/26 09:33:35;;;;;;;2.47;1.00;;;28.20;78.10;;;;;;5073359;28;20204;-80
2022/06/26 09:36:04;;;;;;;1.70;0.90;;;27.80;77.70;;;;;;5084912;28;20182;-79
2022/06/26 09:38:35;;;;;;;1.50;0.70;;;26.80;77.50;;;;;;5085693;28;20219;-80
2022/06/26 09:41:06;;;;;;;2.60;1.08;;;27.10;78.90;;;;;;5055453;28;20184;-79
2022/06/26 09:43:37;;;;;;;1.80;1.00;;;27.20;78.60;;;;;;5063356;28;20341;-80
2022/06/26 09:46:13;;;;;;;1.88;0.88;;;26.70;82.20;;;;;;5083647;28;20285;-80
2022/06/26 09:48:40;;;;;;;1.65;0.68;;;27.10;77.60;;;;;;5086407;28;20224;-80
2022/06/26 09:51:10;;;;;;;2.15;1.23;;;26.90;81.10;;;;;;5086892;28;20194;-80
2022/06/26 09:53:38;;;;;;;1.92;1.00;;;27.10;80.00;;;;;;5086492;28;20603;-78
2022/06/26 09:56:05;;;;;;;2.55;0.90;;;27.40;80.30;;;;;;5089187;28;20183;-79
2022/06/26 09:58:31;;;;;;;3.00;1.80;;;27.90;79.20;;;;;;5080497;28;20180;-79
2022/06/26 10:06:30;;;;;;;2.00;0.90;;;27.90;78.30;;;;;;5070769;28;20188;-80
2022/06/26 10:09:00;;;;;;;2.60;1.00;;;27.90;77.60;;;;;;5052440;28;20223;-80
2022/06/26 10:11:30;;;;;;;2.70;1.00;;;28.20;77.30;;;;;;5070676;28;20180;-79
2022/06/26 10:14:18;;;;;;;2.10;1.10;;;27.80;78.00;;;;;;5068808;28;20712;-78
2022/06/26 10:17:02;;;;;;;2.65;0.93;;;27.90;79.80;;;;;;5072658;28;20177;-79
2022/06/26 10:19:31;;;;;;;4.70;1.48;;;28.20;77.90;;;;;;5078247;28;20184;-81
2022/06/26 10:21:56;;;;;;;1.70;0.80;;;28.00;78.80;;;;;;5066839;28;20648;-79
2022/06/26 10:24:22;;;;;;;2.80;1.08;;;28.20;77.30;;;;;;5076544;28;20261;-79
2022/06/26 10:27:01;;;;;;;1.75;0.82;;;28.10;78.80;;;;;;5064454;28;20186;-79
2022/06/26 10:29:33;;;;;;;3.05;1.08;;;28.00;78.70;;;;;;5072648;28;20237;-79
2022/06/26 10:31:58;;;;;;;2.30;0.70;;;27.80;78.00;;;;;;5076161;28;20612;-77
2022/06/26 10:34:25;;;;;;;1.80;0.70;;;27.70;77.20;;;;;;5071579;28;20224;-79
2022/06/26 10:37:00;;;;;;;2.85;1.20;;;27.50;79.60;;;;;;5069727;28;20183;-78
2022/06/26 10:39:45;;;;;;;2.00;1.00;;;27.30;79.80;;;;;;5080693;28;20191;-79
2022/06/26 10:45:14;;;;;;;2.00;0.80;;;27.20;80.30;;;;;;5076322;28;20276;-79
2022/06/26 10:47:46;;;;;;;2.13;0.80;;;27.00;80.60;;;;;;5073448;28;20267;-76
2022/06/26 10:50:41;;;;;;;1.83;0.80;;;26.90;81.50;;;;;;5080351;28;20203;-79
2022/06/26 10:53:28;;;;;;;1.60;0.77;;;26.90;81.60;;;;;;5060603;28;20216;-79
2022/06/26 10:56:05;;;;;;;2.13;1.00;;;27.00;80.00;;;;;;5071769;28;20190;-78
2022/06/26 10:58:35;;;;;;;2.30;1.17;;;26.90;80.20;;;;;;5074964;28;20234;-78
2022/06/26 11:01:02;;;;;;;1.60;0.80;;;26.70;82.70;;;;;;5072504;28;20184;-79
2022/06/26 11:03:29;;;;;;;1.80;0.80;;;26.70;81.40;;;;;;5082916;28;20296;-79
2022/06/26 11:06:07;;;;;;;2.47;1.10;;;26.60;82.70;;;;;;5087742;28;20313;-79
2022/06/26 11:08:37;;;;;;;1.90;0.77;;;26.70;83.00;;;;;;5063812;28;20697;-79
2022/06/26 11:11:02;;;;;;;1.80;0.90;;;26.60;82.80;;;;;;5090547;28;20233;-78
2022/06/26 11:13:29;;;;;;;1.90;0.80;;;26.50;83.80;;;;;;5082382;28;20544;-79
2022/06/26 11:15:55;;;;;;;3.83;0.97;;;27.00;82.20;;;;;;5076900;28;20188;-79
2022/06/26 11:18:21;;;;;;;1.70;0.70;;;27.20;82.90;;;;;;5078602;28;20184;-79
2022/06/26 11:20:50;;;;;;;4.90;1.07;;;27.20;82.20;;;;;;5073771;28;20610;-79
2022/06/26 11:23:24;;;;;;;2.10;0.90;;;27.20;82.10;;;;;;5072209;28;20204;-79
2022/06/26 11:25:57;;;;;;;1.50;0.60;;;27.20;81.90;;;;;;5079961;28;20303;-77
2022/06/26 11:28:28;;;;;;;1.50;0.80;;;27.30;82.70;;;;;;5079091;28;20202;-78
2022/06/26 11:30:54;;;;;;;2.20;0.90;;;27.40;80.30;;;;;;5078993;28;20191;-80
2022/06/26 11:33:25;;;;;;;2.10;0.97;;;27.50;80.10;;;;;;5082904;28;20212;-79
2022/06/26 11:35:51;;;;;;;2.53;0.90;;;27.20;81.00;;;;;;5075168;28;20183;-77
2022/06/26 11:38:18;;;;;;;2.07;0.90;;;27.00;81.80;;;;;;5054176;28;20743;-79
2022/06/26 11:40:45;;;;;;;1.87;0.80;;;27.10;81.30;;;;;;5074055;28;20617;-78
2022/06/26 11:43:12;;;;;;;3.63;0.90;;;27.10;80.00;;;;;;5069248;28;20219;-79
2022/06/26 11:45:40;;;;;;;1.60;0.80;;;27.00;80.50;;;;;;5070945;28;20242;-79
2022/06/26 11:48:17;;;;;;;1.73;0.80;;;27.00;81.40;;;;;;5077396;28;20189;-79
2022/06/26 11:50:49;;;;;;;7.43;1.07;;;26.90;85.30;;;;;;5081681;28;20207;-79
2022/06/26 11:53:21;;;;;;;2.17;0.90;;;27.00;81.30;;;;;;5087354;28;20210;-79
2022/06/26 11:55:50;;;;;;;1.90;0.90;;;27.00;83.30;;;;;;5080265;28;20828;-79
2022/06/26 11:58:17;;;;;;;1.90;0.80;;;26.90;81.90;;;;;;5084445;28;20418;-79
2022/06/26 12:00:44;;;;;;;2.00;0.80;;;27.00;81.50;;;;;;5091393;28;20434;-78
2022/06/26 12:03:12;;;;;;;1.73;0.90;;;27.20;82.90;;;;;;5091146;28;20211;-79
2022/06/26 12:05:41;;;;;;;1.90;0.80;;;27.20;84.90;;;;;;5094982;28;20207;-79
2022/06/26 12:08:16;;;;;;;1.60;0.80;;;27.20;85.50;;;;;;5118711;28;20437;-79
2022/06/26 12:10:45;;;;;;;1.90;0.70;;;27.00;86.30;;;;;;5104304;28;20416;-80
2022/06/26 12:13:29;;;;;;;1.97;0.90;;;27.00;84.80;;;;;;5129501;27;20221;-78
2022/06/26 12:16:06;;;;;;;1.50;0.63;;;27.10;83.20;;;;;;5108647;27;20171;-79
2022/06/26 12:18:37;;;;;;;1.67;0.70;;;27.30;81.60;;;;;;5086104;28;20644;-79
2022/06/26 12:21:03;;;;;;;1.90;0.90;;;27.10;84.00;;;;;;5079985;28;20181;-78
2022/06/26 12:23:39;;;;;;;2.43;1.17;;;27.20;82.70;;;;;;5087680;28;20999;-79
2022/06/26 12:26:09;;;;;;;1.87;0.80;;;27.10;82.80;;;;;;5084887;28;20313;-79
2022/06/26 12:28:44;;;;;;;1.50;0.60;;;27.20;84.80;;;;;;5080930;28;20176;-78
2022/06/26 12:31:12;;;;;;;1.83;0.80;;;27.20;85.90;;;;;;5068450;28;20175;-78
2022/06/26 12:33:37;;;;;;;3.07;0.90;;;27.50;80.20;;;;;;5083846;28;20458;-77
2022/06/26 12:36:03;;;;;;;1.53;0.70;;;27.50;81.50;;;;;;5087374;28;20177;-79
2022/06/26 12:38:32;;;;;;;2.47;0.80;;;27.50;84.10;;;;;;5095041;28;20244;-79
2022/06/26 12:40:57;;;;;;;1.60;0.73;;;27.50;82.40;;;;;;5109971;28;20186;-79
2022/06/26 12:43:23;;;;;;;3.50;0.87;;;27.70;79.90;;;;;;5099373;28;20361;-78
2022/06/26 12:45:49;;;;;;;2.07;0.77;;;27.60;80.10;;;;;;5111423;28;20929;-78
2022/06/26 12:48:14;;;;;;;2.60;0.80;;;27.60;82.30;;;;;;5096202;28;20585;-78
2022/06/26 12:50:40;;;;;;;2.07;1.00;;;27.40;81.00;;;;;;5073008;28;20177;-77
2022/06/26 12:53:06;;;;;;;4.47;1.20;;;27.20;82.80;;;;;;5072381;28;20283;-78
2022/06/26 12:55:32;;;;;;;3.23;1.10;;;27.40;82.70;;;;;;5083921;28;20757;-79
2022/06/26 12:57:57;;;;;;;2.17;0.80;;;27.50;81.80;;;;;;5092153;28;20188;-77
2022/06/26 13:00:23;;;;;;;3.13;0.97;;;27.20;85.20;;;;;;5104705;28;20239;-77